sensor_id;sensor_type;location;lat;lon;timestamp;pressure;altitude;pressure_sealevel;temperature;humidity
28004;BME280;15330;51.234;6.754;2023-04-22T00:01:41;100355.66;;;10.42;100.00
28004;BME280;15330;51.234;6.754;2023-04-22T00:04:07;100351.47;;;10.47;100.00
28004;BME280;15330;51.234;6.754;2023-04-22T00:06:33;100352.59;;;10.53;100.00
28004;BME280;15330;51.234;6.754;2023-04-22T00:08:58;100346.41;;;10.52;100.00
28004;BME280;15330;51.234;6.754;2023-04-22T00:11:24;100343.13;;;10.42;100.00
28004;BME280;15330;51.234;6.754;2023-04-22T00:13:50;100348.19;;;10.29;100.00
28004;BME280;15330;51.234;6.754;2023-04-22T00:16:15;100348.22;;;10.21;100.00
28004;BME280;15330;51.234;6.754;2023-04-22T00:18:41;100339.94;;;10.39;100.00
28004;BME280;15330;51.234;6.754;2023-04-22T00:21:07;100346.72;;;10.26;100.00
28004;BME280;15330;51.234;6.754;2023-04-22T00:23:32;100340.53;;;10.26;100.00
28004;BME280;15330;51.234;6.754;2023-04-22T00:25:59;100340.31;;;10.36;100.00
28004;BME280;15330;51.234;6.754;2023-04-22T00:28:25;100336.78;;;10.43;100.00
28004;BME280;15330;51.234;6.754;2023-04-22T00:30:50;100338.16;;;10.31;100.00
28004;BME280;15330;51.234;6.754;2023-04-22T00:33:16;100338.50;;;10.28;100.00
28004;BME280;15330;51.234;6.754;2023-04-22T00:35:41;100331.28;;;10.37;100.00
28004;BME280;15330;51.234;6.754;2023-04-22T00:38:06;100335.44;;;10.47;100.00
28004;BME280;15330;51.234;6.754;2023-04-22T00:40:32;100333.06;;;10.52;100.00
28004;BME280;15330;51.234;6.754;2023-04-22T00:42:58;100336.22;;;10.56;100.00
28004;BME280;15330;51.234;6.754;2023-04-22T00:45:25;100338.84;;;10.64;100.00
28004;BME280;15330;51.234;6.754;2023-04-22T00:47:51;100331.69;;;10.87;100.00
28004;BME280;15330;51.234;6.754;2023-04-22T00:50:17;100335.06;;;10.81;100.00
28004;BME280;15330;51.234;6.754;2023-04-22T00:52:42;100342.88;;;10.60;100.00
28004;BME280;15330;51.234;6.754;2023-04-22T00:55:08;100342.56;;;10.55;100.00
28004;BME280;15330;51.234;6.754;2023-04-22T00:57:34;100339.28;;;10.45;100.00
28004;BME280;15330;51.234;6.754;2023-04-22T01:00:00;100326.69;;;10.53;100.00
28004;BME280;15330;51.234;6.754;2023-04-22T01:02:25;100336.66;;;10.68;100.00
28004;BME280;15330;51.234;6.754;2023-04-22T01:04:51;100333.94;;;10.45;100.00
28004;BME280;15330;51.234;6.754;2023-04-22T01:07:18;100336.66;;;10.68;100.00
28004;BME280;15330;51.234;6.754;2023-04-22T01:09:44;100326.81;;;10.60;100.00
28004;BME280;15330;51.234;6.754;2023-04-22T01:12:10;100334.63;;;10.70;100.00
28004;BME280;15330;51.234;6.754;2023-04-22T01:14:35;100330.69;;;10.57;100.00
28004;BME280;15330;51.234;6.754;2023-04-22T01:17:01;100328.03;;;10.57;100.00
28004;BME280;15330;51.234;6.754;2023-04-22T01:19:27;100322.63;;;10.65;100.00
28004;BME280;15330;51.234;6.754;2023-04-22T01:21:53;100321.41;;;10.45;100.00
28004;BME280;15330;51.234;6.754;2023-04-22T01:24:20;100319.41;;;10.39;100.00
28004;BME280;15330;51.234;6.754;2023-04-22T01:26:46;100328.28;;;10.32;100.00
28004;BME280;15330;51.234;6.754;2023-04-22T01:29:12;100323.50;;;10.58;100.00
28004;BME280;15330;51.234;6.754;2023-04-22T01:31:38;100324.03;;;10.53;100.00
28004;BME280;15330;51.234;6.754;2023-04-22T01:34:04;100317.66;;;10.54;100.00
28004;BME280;15330;51.234;6.754;2023-04-22T01:36:29;100318.84;;;10.52;100.00
28004;BME280;15330;51.234;6.754;2023-04-22T01:38:57;100319.72;;;10.44;100.00
28004;BME280;15330;51.234;6.754;2023-04-22T01:41:23;100324.63;;;10.33;100.00
28004;BME280;15330;51.234;6.754;2023-04-22T01:43:49;100324.41;;;10.42;100.00
28004;BME280;15330;51.234;6.754;2023-04-22T01:46:16;100330.41;;;10.44;100.00
28004;BME280;15330;51.234;6.754;2023-04-22T01:48:42;100324.94;;;10.38;100.00
28004;BME280;15330;51.234;6.754;2023-04-22T01:51:07;100329.97;;;10.33;100.00
28004;BME280;15330;51.234;6.754;2023-04-22T01:53:34;100324.41;;;10.42;100.00
28004;BME280;15330;51.234;6.754;2023-04-22T01:56:00;100326.78;;;10.37;100.00
28004;BME280;15330;51.234;6.754;2023-04-22T01:58:28;100323.72;;;10.48;100.00
28004;BME280;15330;51.234;6.754;2023-04-22T02:00:54;100321.91;;;10.41;100.00
28004;BME280;15330;51.234;6.754;2023-04-22T02:03:19;100332.00;;;10.61;100.00
28004;BME280;15330;51.234;6.754;2023-04-22T02:05:45;100332.50;;;10.65;100.00
28004;BME280;15330;51.234;6.754;2023-04-22T02:08:10;100332.94;;;10.77;100.00
28004;BME280;15330;51.234;6.754;2023-04-22T02:10:35;100339.47;;;10.74;100.00
28004;BME280;15330;51.234;6.754;2023-04-22T02:13:01;100333.63;;;10.71;100.00
28004;BME280;15330;51.234;6.754;2023-04-22T02:15:26;100333.63;;;10.71;100.00
28004;BME280;15330;51.234;6.754;2023-04-22T02:17:51;100330.91;;;10.79;100.00
28004;BME280;15330;51.234;6.754;2023-04-22T02:20:17;100322.41;;;10.75;100.00
28004;BME280;15330;51.234;6.754;2023-04-22T02:22:43;100325.38;;;10.80;100.00
28004;BME280;15330;51.234;6.754;2023-04-22T02:25:09;100321.69;;;10.81;100.00
28004;BME280;15330;51.234;6.754;2023-04-22T02:27:36;100316.03;;;10.76;100.00
28004;BME280;15330;51.234;6.754;2023-04-22T02:30:02;100319.91;;;10.74;100.00
28004;BME280;15330;51.234;6.754;2023-04-22T02:32:28;100315.13;;;10.61;100.00
28004;BME280;15330;51.234;6.754;2023-04-22T02:34:53;100318.44;;;10.63;100.00
28004;BME280;15330;51.234;6.754;2023-04-22T02:37:19;100318.28;;;10.64;100.00
28004;BME280;15330;51.234;6.754;2023-04-22T02:39:45;100316.78;;;10.62;100.00
28004;BME280;15330;51.234;6.754;2023-04-22T02:42:11;100308.75;;;10.62;100.00
28004;BME280;15330;51.234;6.754;2023-04-22T02:44:36;100308.31;;;10.58;100.00
28004;BME280;15330;51.234;6.754;2023-04-22T02:47:01;100312.25;;;10.62;100.00
28004;BME280;15330;51.234;6.754;2023-04-22T02:49:28;100311.75;;;10.67;100.00
28004;BME280;15330;51.234;6.754;2023-04-22T02:51:53;100296.28;;;10.54;100.00
28004;BME280;15330;51.234;6.754;2023-04-22T02:54:18;100292.88;;;10.60;100.00
28004;BME280;15330;51.234;6.754;2023-04-22T02:56:44;100297.41;;;10.60;100.00
28004;BME280;15330;51.234;6.754;2023-04-22T02:59:10;100296.22;;;10.62;100.00
28004;BME280;15330;51.234;6.754;2023-04-22T03:01:35;100287.00;;;10.65;100.00
28004;BME280;15330;51.234;6.754;2023-04-22T03:04:01;100284.16;;;10.66;100.00
28004;BME280;15330;51.234;6.754;2023-04-22T03:06:26;100281.59;;;10.73;100.00
28004;BME280;15330;51.234;6.754;2023-04-22T03:08:51;100281.78;;;10.72;100.00
28004;BME280;15330;51.234;6.754;2023-04-22T03:11:17;100282.16;;;10.69;100.00
28004;BME280;15330;51.234;6.754;2023-04-22T03:13:42;100280.53;;;10.82;100.00
28004;BME280;15330;51.234;6.754;2023-04-22T03:16:08;100279.44;;;10.77;100.00
28004;BME280;15330;51.234;6.754;2023-04-22T03:18:33;100274.41;;;10.74;100.00
28004;BME280;15330;51.234;6.754;2023-04-22T03:20:58;100277.88;;;10.82;100.00
28004;BME280;15330;51.234;6.754;2023-04-22T03:23:25;100279.59;;;10.75;100.00
28004;BME280;15330;51.234;6.754;2023-04-22T03:25:50;100275.44;;;10.73;100.00
28004;BME280;15330;51.234;6.754;2023-04-22T03:28:16;100282.75;;;10.79;100.00
28004;BME280;15330;51.234;6.754;2023-04-22T03:30:41;100275.56;;;10.79;100.00
28004;BME280;15330;51.234;6.754;2023-04-22T03:33:06;100265.88;;;10.78;100.00
28004;BME280;15330;51.234;6.754;2023-04-22T03:35:32;100265.22;;;10.76;100.00
28004;BME280;15330;51.234;6.754;2023-04-22T03:37:57;100259.91;;;10.91;100.00
28004;BME280;15330;51.234;6.754;2023-04-22T03:40:22;100257.00;;;10.78;100.00
28004;BME280;15330;51.234;6.754;2023-04-22T03:42:48;100251.53;;;10.71;100.00
28004;BME280;15330;51.234;6.754;2023-04-22T03:45:13;100241.81;;;10.78;100.00
28004;BME280;15330;51.234;6.754;2023-04-22T03:47:39;100244.16;;;10.73;100.00
28004;BME280;15330;51.234;6.754;2023-04-22T03:50:04;100239.72;;;10.88;100.00
28004;BME280;15330;51.234;6.754;2023-04-22T03:52:30;100255.53;;;10.75;100.00
28004;BME280;15330;51.234;6.754;2023-04-22T03:54:55;100262.59;;;10.68;100.00
28004;BME280;15330;51.234;6.754;2023-04-22T03:57:20;100255.63;;;10.82;100.00
28004;BME280;15330;51.234;6.754;2023-04-22T03:59:46;100258.84;;;10.77;100.00
28004;BME280;15330;51.234;6.754;2023-04-22T04:02:11;100250.06;;;10.69;100.00
28004;BME280;15330;51.234;6.754;2023-04-22T04:04:36;100250.44;;;10.80;100.00
28004;BME280;15330;51.234;6.754;2023-04-22T04:07:02;100245.69;;;10.90;100.00
28004;BME280;15330;51.234;6.754;2023-04-22T04:09:27;100236.72;;;10.83;100.00
28004;BME280;15330;51.234;6.754;2023-04-22T04:11:53;100240.41;;;10.82;100.00
28004;BME280;15330;51.234;6.754;2023-04-22T04:14:18;100231.63;;;10.96;100.00
28004;BME280;15330;51.234;6.754;2023-04-22T04:16:43;100231.09;;;10.78;100.00
28004;BME280;15330;51.234;6.754;2023-04-22T04:19:09;100227.75;;;10.76;100.00
28004;BME280;15330;51.234;6.754;2023-04-22T04:21:35;100222.25;;;10.78;100.00
28004;BME280;15330;51.234;6.754;2023-04-22T04:24:02;100219.84;;;10.83;100.00
28004;BME280;15330;51.234;6.754;2023-04-22T04:26:27;100222.25;;;10.78;100.00
28004;BME280;15330;51.234;6.754;2023-04-22T04:28:53;100219.97;;;10.89;100.00
28004;BME280;15330;51.234;6.754;2023-04-22T04:31:19;100226.03;;;10.83;100.00
28004;BME280;15330;51.234;6.754;2023-04-22T04:33:45;100232.22;;;10.84;100.00
28004;BME280;15330;51.234;6.754;2023-04-22T04:36:11;100231.50;;;10.90;100.00
28004;BME280;15330;51.234;6.754;2023-04-22T04:38:38;100229.47;;;10.92;100.00
28004;BME280;15330;51.234;6.754;2023-04-22T04:41:04;100236.78;;;10.98;100.00
28004;BME280;15330;51.234;6.754;2023-04-22T04:43:29;100232.78;;;10.94;100.00
28004;BME280;15330;51.234;6.754;2023-04-22T04:45:55;100224.81;;;11.09;100.00
28004;BME280;15330;51.234;6.754;2023-04-22T04:48:20;100221.19;;;11.01;100.00
28004;BME280;15330;51.234;6.754;2023-04-22T04:50:49;100221.00;;;11.03;100.00
28004;BME280;15330;51.234;6.754;2023-04-22T04:53:18;100222.31;;;11.07;100.00
28004;BME280;15330;51.234;6.754;2023-04-22T04:55:43;100217.69;;;11.01;100.00
28004;BME280;15330;51.234;6.754;2023-04-22T04:58:09;100215.13;;;11.08;100.00
28004;BME280;15330;51.234;6.754;2023-04-22T05:00:34;100212.41;;;11.30;100.00
28004;BME280;15330;51.234;6.754;2023-04-22T05:03:00;100206.59;;;11.56;100.00
28004;BME280;15330;51.234;6.754;2023-04-22T05:05:25;100204.91;;;11.26;100.00
28004;BME280;15330;51.234;6.754;2023-04-22T05:07:50;100201.25;;;11.42;100.00
28004;BME280;15330;51.234;6.754;2023-04-22T05:10:18;100202.28;;;11.70;100.00
28004;BME280;15330;51.234;6.754;2023-04-22T05:12:43;100199.41;;;12.01;100.00
28004;BME280;15330;51.234;6.754;2023-04-22T05:15:10;100198.94;;;11.68;100.00
28004;BME280;15330;51.234;6.754;2023-04-22T05:17:35;100199.97;;;11.52;100.00
28004;BME280;15330;51.234;6.754;2023-04-22T05:20:02;100200.13;;;11.65;100.00
28004;BME280;15330;51.234;6.754;2023-04-22T05:22:27;100198.00;;;11.46;100.00
28004;BME280;15330;51.234;6.754;2023-04-22T05:24:52;100202.81;;;11.36;100.00
28004;BME280;15330;51.234;6.754;2023-04-22T05:27:18;100207.63;;;11.85;100.00
28004;BME280;15330;51.234;6.754;2023-04-22T05:29:43;100201.72;;;12.04;100.00
28004;BME280;15330;51.234;6.754;2023-04-22T05:32:09;100209.59;;;11.91;100.00
28004;BME280;15330;51.234;6.754;2023-04-22T05:34:34;100205.72;;;11.79;100.00
28004;BME280;15330;51.234;6.754;2023-04-22T05:37:02;100218.88;;;11.65;100.00
28004;BME280;15330;51.234;6.754;2023-04-22T05:39:27;100208.34;;;11.64;100.00
28004;BME280;15330;51.234;6.754;2023-04-22T05:41:53;100208.88;;;11.82;100.00
28004;BME280;15330;51.234;6.754;2023-04-22T05:44:18;100218.16;;;11.71;100.00
28004;BME280;15330;51.234;6.754;2023-04-22T05:46:44;100213.22;;;11.83;100.00
28004;BME280;15330;51.234;6.754;2023-04-22T05:49:09;100213.00;;;11.85;100.00
28004;BME280;15330;51.234;6.754;2023-04-22T05:51:35;100219.09;;;11.79;100.00
28004;BME280;15330;51.234;6.754;2023-04-22T05:54:00;100208.47;;;11.85;100.00
28004;BME280;15330;51.234;6.754;2023-04-22T05:56:25;100219.56;;;11.97;100.00
28004;BME280;15330;51.234;6.754;2023-04-22T05:58:52;100214.66;;;12.00;100.00
28004;BME280;15330;51.234;6.754;2023-04-22T06:01:17;100214.38;;;12.10;100.00
28004;BME280;15330;51.234;6.754;2023-04-22T06:03:43;100215.09;;;12.19;100.00
28004;BME280;15330;51.234;6.754;2023-04-22T06:06:08;100218.72;;;12.11;100.00
28004;BME280;15330;51.234;6.754;2023-04-22T06:08:33;100217.94;;;12.17;100.00
28004;BME280;15330;51.234;6.754;2023-04-22T06:10:59;100214.91;;;12.20;100.00
28004;BME280;15330;51.234;6.754;2023-04-22T06:13:24;100208.97;;;12.25;100.00
28004;BME280;15330;51.234;6.754;2023-04-22T06:15:50;100218.91;;;12.45;100.00
28004;BME280;15330;51.234;6.754;2023-04-22T06:18:16;100213.97;;;12.49;100.00
28004;BME280;15330;51.234;6.754;2023-04-22T06:20:41;100211.06;;;12.44;100.00
28004;BME280;15330;51.234;6.754;2023-04-22T06:23:06;100212.09;;;12.64;100.00
28004;BME280;15330;51.234;6.754;2023-04-22T06:25:32;100213.28;;;12.62;100.00
28004;BME280;15330;51.234;6.754;2023-04-22T06:27:58;100222.94;;;12.77;100.00
28004;BME280;15330;51.234;6.754;2023-04-22T06:30:23;100207.78;;;12.91;100.00
28004;BME280;15330;51.234;6.754;2023-04-22T06:32:50;100211.78;;;13.16;99.36
28004;BME280;15330;51.234;6.754;2023-04-22T06:35:16;100213.66;;;13.22;98.27
28004;BME280;15330;51.234;6.754;2023-04-22T06:37:41;100201.56;;;13.33;97.97
28004;BME280;15330;51.234;6.754;2023-04-22T06:40:07;100202.31;;;13.55;97.15
28004;BME280;15330;51.234;6.754;2023-04-22T06:42:33;100209.53;;;13.48;96.78
28004;BME280;15330;51.234;6.754;2023-04-22T06:44:58;100211.41;;;13.54;97.38
28004;BME280;15330;51.234;6.754;2023-04-22T06:47:24;100202.31;;;13.89;95.64
28004;BME280;15330;51.234;6.754;2023-04-22T06:49:49;100197.03;;;14.09;94.87
28004;BME280;15330;51.234;6.754;2023-04-22T06:52:14;100198.75;;;14.30;93.31
28004;BME280;15330;51.234;6.754;2023-04-22T06:54:40;100200.56;;;14.23;93.04
28004;BME280;15330;51.234;6.754;2023-04-22T06:57:05;100209.38;;;13.97;94.55
28004;BME280;15330;51.234;6.754;2023-04-22T06:59:32;100204.22;;;14.02;94.59
28004;BME280;15330;51.234;6.754;2023-04-22T07:01:57;100202.22;;;14.24;94.05
28004;BME280;15330;51.234;6.754;2023-04-22T07:04:22;100200.56;;;14.84;92.37
28004;BME280;15330;51.234;6.754;2023-04-22T07:06:48;100204.44;;;14.75;91.14
28004;BME280;15330;51.234;6.754;2023-04-22T07:09:13;100204.91;;;15.04;90.08
28004;BME280;15330;51.234;6.754;2023-04-22T07:11:39;100201.16;;;15.32;88.88
28004;BME280;15330;51.234;6.754;2023-04-22T07:14:04;100202.63;;;15.08;89.13
28004;BME280;15330;51.234;6.754;2023-04-22T07:16:29;100194.72;;;14.67;91.20
28004;BME280;15330;51.234;6.754;2023-04-22T07:18:55;100200.94;;;15.27;88.54
28004;BME280;15330;51.234;6.754;2023-04-22T07:21:21;100195.16;;;14.90;89.14
28004;BME280;15330;51.234;6.754;2023-04-22T07:23:46;100198.50;;;15.12;89.26
28004;BME280;15330;51.234;6.754;2023-04-22T07:26:12;100193.72;;;15.21;88.03
28004;BME280;15330;51.234;6.754;2023-04-22T07:28:37;100183.94;;;15.46;87.11
28004;BME280;15330;51.234;6.754;2023-04-22T07:31:03;100183.00;;;15.92;85.83
28004;BME280;15330;51.234;6.754;2023-04-22T07:33:28;100182.06;;;15.60;86.30
28004;BME280;15330;51.234;6.754;2023-04-22T07:35:53;100180.06;;;16.06;86.19
28004;BME280;15330;51.234;6.754;2023-04-22T07:38:19;100173.31;;;16.29;83.23
28004;BME280;15330;51.234;6.754;2023-04-22T07:40:45;100172.28;;;16.30;83.82
28004;BME280;15330;51.234;6.754;2023-04-22T07:43:10;100175.41;;;16.20;84.08
28004;BME280;15330;51.234;6.754;2023-04-22T07:45:35;100176.38;;;16.32;83.15
28004;BME280;15330;51.234;6.754;2023-04-22T07:48:01;100165.16;;;15.97;84.01
28004;BME280;15330;51.234;6.754;2023-04-22T07:50:26;100168.06;;;15.89;84.79
28004;BME280;15330;51.234;6.754;2023-04-22T07:52:52;100160.03;;;16.21;83.78
28004;BME280;15330;51.234;6.754;2023-04-22T07:55:17;100167.47;;;16.32;83.26
28004;BME280;15330;51.234;6.754;2023-04-22T07:57:42;100166.81;;;16.36;82.89
28004;BME280;15330;51.234;6.754;2023-04-22T08:00:09;100163.53;;;16.66;81.63
28004;BME280;15330;51.234;6.754;2023-04-22T08:02:34;100175.69;;;16.43;81.16
28004;BME280;15330;51.234;6.754;2023-04-22T08:05:00;100166.66;;;16.69;80.80
28004;BME280;15330;51.234;6.754;2023-04-22T08:07:25;100166.19;;;16.72;80.58
28004;BME280;15330;51.234;6.754;2023-04-22T08:09:51;100137.66;;;16.83;80.55
28004;BME280;15330;51.234;6.754;2023-04-22T08:12:17;100161.84;;;16.96;80.52
28004;BME280;15330;51.234;6.754;2023-04-22T08:14:42;100173.44;;;17.03;80.16
28004;BME280;15330;51.234;6.754;2023-04-22T08:17:08;100165.75;;;17.25;78.55
28004;BME280;15330;51.234;6.754;2023-04-22T08:19:33;100158.22;;;17.52;78.79
28004;BME280;15330;51.234;6.754;2023-04-22T08:21:58;100148.47;;;17.69;77.32
28004;BME280;15330;51.234;6.754;2023-04-22T08:24:24;100150.31;;;17.32;77.14
28004;BME280;15330;51.234;6.754;2023-04-22T08:26:49;100140.56;;;17.06;77.44
28004;BME280;15330;51.234;6.754;2023-04-22T08:29:15;100126.06;;;17.62;76.90
28004;BME280;15330;51.234;6.754;2023-04-22T08:31:41;100133.88;;;17.34;77.49
28004;BME280;15330;51.234;6.754;2023-04-22T08:34:06;100131.69;;;17.60;75.62
28004;BME280;15330;51.234;6.754;2023-04-22T08:36:31;100136.41;;;17.29;76.24
28004;BME280;15330;51.234;6.754;2023-04-22T08:38:57;100139.28;;;17.52;76.82
28004;BME280;15330;51.234;6.754;2023-04-22T08:41:23;100148.84;;;17.54;76.79
28004;BME280;15330;51.234;6.754;2023-04-22T08:43:49;100143.81;;;17.76;76.28
28004;BME280;15330;51.234;6.754;2023-04-22T08:46:16;100131.84;;;17.47;76.88
28004;BME280;15330;51.234;6.754;2023-04-22T08:48:42;100123.97;;;17.82;75.60
28004;BME280;15330;51.234;6.754;2023-04-22T08:51:07;100121.59;;;17.74;74.55
28004;BME280;15330;51.234;6.754;2023-04-22T08:53:33;100119.75;;;18.05;73.51
28004;BME280;15330;51.234;6.754;2023-04-22T08:55:58;100120.41;;;18.30;73.65
28004;BME280;15330;51.234;6.754;2023-04-22T08:58:25;100106.47;;;18.15;73.42
28004;BME280;15330;51.234;6.754;2023-04-22T09:00:53;100119.53;;;18.18;72.49
28004;BME280;15330;51.234;6.754;2023-04-22T09:03:20;100109.09;;;18.21;72.12
28004;BME280;15330;51.234;6.754;2023-04-22T09:05:46;100109.72;;;18.35;72.03
28004;BME280;15330;51.234;6.754;2023-04-22T09:08:15;100108.81;;;18.53;70.56
28004;BME280;15330;51.234;6.754;2023-04-22T09:10:41;100101.28;;;19.20;68.97
28004;BME280;15330;51.234;6.754;2023-04-22T09:13:06;100104.91;;;19.25;67.61
28004;BME280;15330;51.234;6.754;2023-04-22T09:15:32;100107.53;;;19.09;67.64
28004;BME280;15330;51.234;6.754;2023-04-22T09:17:58;100096.16;;;19.47;66.23
28004;BME280;15330;51.234;6.754;2023-04-22T09:20:27;100103.25;;;19.13;67.66
28004;BME280;15330;51.234;6.754;2023-04-22T09:22:54;100097.81;;;19.48;65.90
28004;BME280;15330;51.234;6.754;2023-04-22T09:25:26;100095.31;;;19.46;66.11
28004;BME280;15330;51.234;6.754;2023-04-22T09:27:57;100106.69;;;19.20;65.63
28004;BME280;15330;51.234;6.754;2023-04-22T09:30:28;100101.69;;;19.63;65.28
28004;BME280;15330;51.234;6.754;2023-04-22T09:32:56;100100.53;;;19.59;65.10
28004;BME280;15330;51.234;6.754;2023-04-22T09:35:38;100101.59;;;19.98;64.32
28004;BME280;15330;51.234;6.754;2023-04-22T09:38:06;100089.22;;;19.91;63.44
28004;BME280;15330;51.234;6.754;2023-04-22T09:40:32;100094.34;;;19.75;63.47
28004;BME280;15330;51.234;6.754;2023-04-22T09:43:00;100091.63;;;20.04;63.59
28004;BME280;15330;51.234;6.754;2023-04-22T09:45:28;100094.41;;;20.21;62.05
28004;BME280;15330;51.234;6.754;2023-04-22T09:47:55;100102.03;;;19.67;62.83
28004;BME280;15330;51.234;6.754;2023-04-22T09:50:25;100099.03;;;19.92;63.52
28004;BME280;15330;51.234;6.754;2023-04-22T09:53:05;100096.03;;;19.41;65.15
28004;BME280;15330;51.234;6.754;2023-04-22T09:55:34;100095.28;;;20.09;63.00
28004;BME280;15330;51.234;6.754;2023-04-22T09:58:11;100081.94;;;20.08;63.25
28004;BME280;15330;51.234;6.754;2023-04-22T10:00:46;100076.16;;;20.33;62.04
28004;BME280;15330;51.234;6.754;2023-04-22T10:03:13;100082.91;;;20.30;63.17
28004;BME280;15330;51.234;6.754;2023-04-22T10:05:38;100085.13;;;20.33;62.33
28004;BME280;15330;51.234;6.754;2023-04-22T10:08:06;100074.81;;;20.19;61.52
28004;BME280;15330;51.234;6.754;2023-04-22T10:10:33;100087.31;;;20.48;60.90
28004;BME280;15330;51.234;6.754;2023-04-22T10:12:59;100080.97;;;20.59;61.58
28004;BME280;15330;51.234;6.754;2023-04-22T10:15:25;100082.22;;;20.85;61.74
28004;BME280;15330;51.234;6.754;2023-04-22T10:17:52;100093.31;;;21.00;60.35
28004;BME280;15330;51.234;6.754;2023-04-22T10:20:19;100092.81;;;21.20;60.63
28004;BME280;15330;51.234;6.754;2023-04-22T10:22:46;100093.56;;;21.15;59.76
28004;BME280;15330;51.234;6.754;2023-04-22T10:25:25;100092.66;;;21.27;59.58
28004;BME280;15330;51.234;6.754;2023-04-22T10:28:04;100089.88;;;20.55;59.04
28004;BME280;15330;51.234;6.754;2023-04-22T10:30:31;100092.75;;;20.48;59.99
28004;BME280;15330;51.234;6.754;2023-04-22T10:38:40;100099.25;;;20.19;60.31
28004;BME280;15330;51.234;6.754;2023-04-22T10:41:06;100088.88;;;20.15;60.99
28004;BME280;15330;51.234;6.754;2023-04-22T10:49:09;100096.88;;;20.67;58.77
28004;BME280;15330;51.234;6.754;2023-04-22T10:51:50;100097.31;;;20.76;58.88
28004;BME280;15330;51.234;6.754;2023-04-22T10:57:11;100095.47;;;20.98;57.02
28004;BME280;15330;51.234;6.754;2023-04-22T11:02:07;100113.75;;;20.52;58.24
28004;BME280;15330;51.234;6.754;2023-04-22T11:04:33;100116.06;;;20.77;57.97
28004;BME280;15330;51.234;6.754;2023-04-22T11:09:48;100099.44;;;20.74;57.03
28004;BME280;15330;51.234;6.754;2023-04-22T11:15:18;100108.56;;;20.68;57.85
28004;BME280;15330;51.234;6.754;2023-04-22T11:17:49;100100.59;;;20.44;58.47
28004;BME280;15330;51.234;6.754;2023-04-22T11:20:15;100106.81;;;20.16;59.48
28004;BME280;15330;51.234;6.754;2023-04-22T11:22:56;100108.38;;;20.41;59.44
28004;BME280;15330;51.234;6.754;2023-04-22T11:25:23;100104.88;;;20.29;60.11
28004;BME280;15330;51.234;6.754;2023-04-22T11:27:49;100101.09;;;20.01;60.68
28004;BME280;15330;51.234;6.754;2023-04-22T11:32:50;100099.22;;;20.02;61.77
28004;BME280;15330;51.234;6.754;2023-04-22T11:35:26;100098.97;;;20.32;60.61
28004;BME280;15330;51.234;6.754;2023-04-22T11:37:57;100098.34;;;20.13;60.22
28004;BME280;15330;51.234;6.754;2023-04-22T11:40:34;100097.28;;;20.14;60.86
28004;BME280;15330;51.234;6.754;2023-04-22T11:43:05;100094.31;;;19.87;61.50
28004;BME280;15330;51.234;6.754;2023-04-22T11:45:32;100092.47;;;20.04;61.27
28004;BME280;15330;51.234;6.754;2023-04-22T11:47:59;100087.53;;;20.01;62.22
28004;BME280;15330;51.234;6.754;2023-04-22T11:50:28;100080.53;;;20.34;62.38
28004;BME280;15330;51.234;6.754;2023-04-22T11:52:58;100071.09;;;20.70;60.73
28004;BME280;15330;51.234;6.754;2023-04-22T11:55:30;100066.38;;;20.32;60.54
28004;BME280;15330;51.234;6.754;2023-04-22T11:57:59;100083.00;;;20.35;61.51
28004;BME280;15330;51.234;6.754;2023-04-22T12:00:30;100059.53;;;20.29;61.11
28004;BME280;15330;51.234;6.754;2023-04-22T12:03:17;100085.91;;;20.45;59.38
28004;BME280;15330;51.234;6.754;2023-04-22T12:05:57;100063.84;;;20.92;58.44
28004;BME280;15330;51.234;6.754;2023-04-22T12:08:36;100072.16;;;20.69;59.56
28004;BME280;15330;51.234;6.754;2023-04-22T12:11:07;100079.09;;;20.93;58.96
28004;BME280;15330;51.234;6.754;2023-04-22T12:13:43;100078.59;;;20.96;58.98
28004;BME280;15330;51.234;6.754;2023-04-22T12:16:12;100080.66;;;20.89;58.51
28004;BME280;15330;51.234;6.754;2023-04-22T12:18:39;100080.91;;;20.71;58.90
28004;BME280;15330;51.234;6.754;2023-04-22T12:23:40;100079.56;;;21.23;59.31
28004;BME280;15330;51.234;6.754;2023-04-22T12:26:06;100075.44;;;21.21;58.87
28004;BME280;15330;51.234;6.754;2023-04-22T12:28:31;100085.34;;;21.27;58.65
28004;BME280;15330;51.234;6.754;2023-04-22T12:30:57;100074.06;;;21.40;58.34
28004;BME280;15330;51.234;6.754;2023-04-22T12:33:22;100070.38;;;21.30;58.63
28004;BME280;15330;51.234;6.754;2023-04-22T12:35:48;100079.09;;;20.93;58.81
28004;BME280;15330;51.234;6.754;2023-04-22T12:38:16;100089.63;;;21.23;59.33
28004;BME280;15330;51.234;6.754;2023-04-22T12:40:42;100090.31;;;20.97;59.79
28004;BME280;15330;51.234;6.754;2023-04-22T12:43:07;100068.94;;;21.44;58.90
28004;BME280;15330;51.234;6.754;2023-04-22T12:45:32;100087.31;;;21.15;58.89
28004;BME280;15330;51.234;6.754;2023-04-22T12:47:58;100082.00;;;21.08;59.47
28004;BME280;15330;51.234;6.754;2023-04-22T12:50:23;100089.81;;;20.83;60.04
28004;BME280;15330;51.234;6.754;2023-04-22T12:52:49;100097.88;;;20.44;60.64
28004;BME280;15330;51.234;6.754;2023-04-22T12:55:15;100104.72;;;20.64;61.69
28004;BME280;15330;51.234;6.754;2023-04-22T12:57:40;100098.72;;;20.33;62.17
28004;BME280;15330;51.234;6.754;2023-04-22T13:00:06;100095.28;;;20.38;62.86
28004;BME280;15330;51.234;6.754;2023-04-22T13:02:39;100088.75;;;20.22;63.16
28004;BME280;15330;51.234;6.754;2023-04-22T13:05:05;100094.31;;;20.15;64.17
28004;BME280;15330;51.234;6.754;2023-04-22T13:07:30;100087.94;;;19.93;63.72
28004;BME280;15330;51.234;6.754;2023-04-22T13:09:56;100089.25;;;19.79;64.14